地図

経路データ

SID SEASON NUMBER BASIN SUBBASIN NAME ISO_TIME NATURE LAT LON WMO_WIND WMO_PRES WMO_AGENCY TRACK_TYPE DIST2LAND LANDFALL IFLAG USA_AGENCY USA_ATCF_ID USA_LAT USA_LON USA_RECORD USA_STATUS USA_WIND USA_PRES USA_SSHS USA_R34_NE USA_R34_SE USA_R34_SW USA_R34_NW USA_R50_NE USA_R50_SE USA_R50_SW USA_R50_NW USA_R64_NE USA_R64_SE USA_R64_SW USA_R64_NW USA_POCI USA_ROCI USA_RMW USA_EYE TOKYO_LAT TOKYO_LON TOKYO_GRADE TOKYO_WIND TOKYO_PRES TOKYO_R50_DIR TOKYO_R50_LONG TOKYO_R50_SHORT TOKYO_R30_DIR TOKYO_R30_LONG TOKYO_R30_SHORT TOKYO_LAND CMA_LAT CMA_LON CMA_CAT CMA_WIND CMA_PRES HKO_LAT HKO_LON HKO_CAT HKO_WIND HKO_PRES NEWDELHI_LAT NEWDELHI_LON NEWDELHI_GRADE NEWDELHI_WIND NEWDELHI_PRES NEWDELHI_CI NEWDELHI_DP NEWDELHI_POCI REUNION_LAT REUNION_LON REUNION_TYPE REUNION_WIND REUNION_PRES REUNION_TNUM REUNION_CI REUNION_RMW REUNION_R34_NE REUNION_R34_SE REUNION_R34_SW REUNION_R34_NW REUNION_R50_NE REUNION_R50_SE REUNION_R50_SW REUNION_R50_NW REUNION_R64_NE REUNION_R64_SE REUNION_R64_SW REUNION_R64_NW BOM_LAT BOM_LON BOM_TYPE BOM_WIND BOM_PRES BOM_TNUM BOM_CI BOM_RMW BOM_R34_NE BOM_R34_SE BOM_R34_SW BOM_R34_NW BOM_R50_NE BOM_R50_SE BOM_R50_SW BOM_R50_NW BOM_R64_NE BOM_R64_SE BOM_R64_SW BOM_R64_NW BOM_ROCI BOM_POCI BOM_EYE BOM_POS_METHOD BOM_PRES_METHOD NADI_LAT NADI_LON NADI_CAT NADI_WIND NADI_PRES WELLINGTON_LAT WELLINGTON_LON WELLINGTON_WIND WELLINGTON_PRES DS824_LAT DS824_LON DS824_STAGE DS824_WIND DS824_PRES TD9636_LAT TD9636_LON TD9636_STAGE TD9636_WIND TD9636_PRES TD9635_LAT TD9635_LON TD9635_WIND TD9635_PRES TD9635_ROCI NEUMANN_LAT NEUMANN_LON NEUMANN_CLASS NEUMANN_WIND NEUMANN_PRES MLC_LAT MLC_LON MLC_CLASS MLC_WIND MLC_PRES USA_GUST BOM_GUST BOM_GUST_PER REUNION_GUST REUNION_GUST_PER USA_SEAHGT USA_SEARAD_NE USA_SEARAD_SE USA_SEARAD_SW USA_SEARAD_NW STORM_SPEED STORM_DIR
1885227N16114 1885 33 WP MM NOT_NAMED 1885-08-15 04:00:00 NR 15.5000 114.000 main 524 508 __________O___ -1 15.5000 114.000 4 8 22
1885227N16114 1885 33 WP MM NOT_NAMED 1885-08-15 06:00:00 NR 15.7539 114.105 main 508 495 __________P___ -1 15.7539 114.105 4 8 22
1885227N16114 1885 33 WP MM NOT_NAMED 1885-08-15 09:00:00 NR 16.1270 114.261 main 503 486 __________P___ -1 16.1270 114.261 4 8 22
1885227N16114 1885 33 WP MM NOT_NAMED 1885-08-15 12:00:00 NR 16.4803 114.412 main 486 479 __________P___ -1 16.4803 114.412 4 7 23
1885227N16114 1885 33 WP MM NOT_NAMED 1885-08-15 15:00:00 NR 16.8019 114.555 main 488 483 __________P___ -1 16.8019 114.555 4 7 24
1885227N16114 1885 33 WP MM NOT_NAMED 1885-08-15 16:00:00 NR 16.9000 114.600 main 483 478 __________O___ -1 16.9000 114.600 4 6 24
1885227N16114 1885 33 WP MM NOT_NAMED 1885-08-15 18:00:00 NR 17.0821 114.686 main 480 473 __________P___ -1 17.0821 114.686 4 6 24
1885227N16114 1885 33 WP MM NOT_NAMED 1885-08-15 21:00:00 NR 17.3359 114.803 main 476 467 __________P___ -1 17.3359 114.803 4 6 22
1885227N16114 1885 33 WP MM NOT_NAMED 1885-08-16 00:00:00 NR 17.5943 114.901 main 467 457 __________P___ -1 17.5943 114.901 4 6 17
1885227N16114 1885 33 WP MM NOT_NAMED 1885-08-16 03:00:00 NR 17.8886 114.979 main 462 457 __________P___ -1 17.8886 114.979 4 6 13
1885227N16114 1885 33 WP MM NOT_NAMED 1885-08-16 04:00:00 NR 18.0000 115.000 main 457 449 __________O___ -1 18.0000 115.000 4 8 12
1885227N16114 1885 33 WP MM NOT_NAMED 1885-08-16 06:00:00 NR 18.2652 115.057 main 455 411 __________P___ -1 18.2652 115.057 4 9 10
1885227N16114 1885 33 WP MM NOT_NAMED 1885-08-16 09:00:00 NR 18.7073 115.124 main 411 359 __________P___ -1 18.7073 115.124 4 9 6
1885227N16114 1885 33 WP MM NOT_NAMED 1885-08-16 12:00:00 NR 19.1776 115.153 main 359 313 __________P___ -1 19.1776 115.153 4 9 0
1885227N16114 1885 33 WP MM NOT_NAMED 1885-08-16 15:00:00 NR 19.6480 115.125 main 313 291 __________P___ -1 19.6480 115.125 4 9 355
1885227N16114 1885 33 WP MM NOT_NAMED 1885-08-16 16:00:00 NR 19.8000 115.100 main 291 256 __________O___ -1 19.8000 115.100 4 9 350
1885227N16114 1885 33 WP MM NOT_NAMED 1885-08-16 18:00:00 NR 20.0937 115.037 main 256 210 __________P___ -1 20.0937 115.037 4 9 344
1885227N16114 1885 33 WP MM NOT_NAMED 1885-08-16 21:00:00 NR 20.5220 114.885 main 210 161 __________P___ -1 20.5220 114.885 4 9 338
1885227N16114 1885 33 WP MM NOT_NAMED 1885-08-17 00:00:00 NR 20.9246 114.671 main 161 112 __________P___ -1 20.9246 114.671 4 9 330
1885227N16114 1885 33 WP MM NOT_NAMED 1885-08-17 03:00:00 NR 21.2891 114.401 main 112 100 __________P___ -1 21.2891 114.401 4 9 324
1885227N16114 1885 33 WP MM NOT_NAMED 1885-08-17 04:00:00 NR 21.4000 114.300 main 100 78 __________O___ -1 21.4000 114.300 4 8 319
1885227N16114 1885 33 WP MM NOT_NAMED 1885-08-17 06:00:00 NR 21.6060 114.108 main 80 45 __________P___ -1 21.6060 114.108 4 8 315
1885227N16114 1885 33 WP MM NOT_NAMED 1885-08-17 09:00:00 NR 21.8772 113.776 main 45 10 __________P___ -1 21.8772 113.776 4 8 307
1885227N16114 1885 33 WP MM NOT_NAMED 1885-08-17 12:00:00 NR 22.1144 113.393 main 10 0 __________P___ -1 22.1144 113.393 4 9 301
1885227N16114 1885 33 WP MM NOT_NAMED 1885-08-17 15:00:00 NR 22.3305 112.957 main 0 0 __________P___ -1 22.3305 112.957 4 9 298
1885227N16114 1885 33 WP MM NOT_NAMED 1885-08-17 16:00:00 NR 22.4000 112.800 main 0 0 __________O___ -1 22.4000 112.800 4 10 295
1885227N16114 1885 33 WP MM NOT_NAMED 1885-08-17 18:00:00 NR 22.5374 112.470 main 0 0 __________P___ -1 22.5374 112.470 4 10 293
1885227N16114 1885 33 WP MM NOT_NAMED 1885-08-17 21:00:00 NR 22.7402 111.939 main 0 0 __________P___ -1 22.7402 111.939 4 11 292
1885227N16114 1885 33 WP MM NOT_NAMED 1885-08-18 00:00:00 NR 22.9393 111.376 main 0 0 __________P___ -1 22.9393 111.376 4 11 291
1885227N16114 1885 33 WP MM NOT_NAMED 1885-08-18 03:00:00 NR 23.1353 110.796 main 0 0 __________P___ -1 23.1353 110.796 4 11 290
1885227N16114 1885 33 WP MM NOT_NAMED 1885-08-18 04:00:00 NR 23.2000 110.600 main 0 __________O___ -1 23.2000 110.600 7 11 290

デジタル台風データ・検索

IBTrACS Databaseについて

本データベースは、米国NOAAが公開する1842年以降の世界の熱帯低気圧のベストトラックデータアーカイブInternational Best Track Archive for Climate Stewardship (IBTrACS)を、ウェブで閲覧しやすい形式に変換したものです。

最終更新日:2021-12-08